createdAt,value
2023-04-15T00:01:11.741Z,1.40
2023-04-15T00:03:38.636Z,1.42
2023-04-15T00:06:06.007Z,1.52
2023-04-15T00:08:33.116Z,1.70
2023-04-15T00:11:02.897Z,1.50
2023-04-15T00:13:29.995Z,1.55
2023-04-15T00:15:56.676Z,1.30
2023-04-15T00:18:24.645Z,1.50
2023-04-15T00:20:52.307Z,1.52
2023-04-15T00:23:19.027Z,1.48
2023-04-15T00:25:45.649Z,1.30
2023-04-15T00:28:12.331Z,1.40
2023-04-15T00:30:39.325Z,1.23
2023-04-15T00:33:06.674Z,1.95
2023-04-15T00:35:33.528Z,1.50
2023-04-15T00:38:00.341Z,1.30
2023-04-15T00:40:27.749Z,1.35
2023-04-15T00:42:54.364Z,1.30
2023-04-15T00:45:22.246Z,1.20
2023-04-15T00:47:49.088Z,1.65
2023-04-15T00:50:15.746Z,1.40
2023-04-15T00:52:42.385Z,1.60
2023-04-15T00:55:09.826Z,1.63
2023-04-15T00:57:36.881Z,1.70
2023-04-15T01:00:05.605Z,1.40
2023-04-15T01:02:36.319Z,1.55
2023-04-15T01:05:04.374Z,1.42
2023-04-15T01:07:32.037Z,1.48
2023-04-15T01:10:00.034Z,1.40
2023-04-15T01:12:27.531Z,1.50
2023-04-15T01:14:55.240Z,1.35
2023-04-15T01:17:22.005Z,1.73
2023-04-15T01:19:48.825Z,1.63
2023-04-15T01:22:27.465Z,1.42
2023-04-15T01:25:14.569Z,1.52
2023-04-15T01:27:42.391Z,1.70
2023-04-15T01:30:10.476Z,1.67
2023-04-15T01:32:40.342Z,1.52
2023-04-15T01:35:07.646Z,2.00
2023-04-15T01:37:34.457Z,1.70
2023-04-15T01:40:02.200Z,1.58
2023-04-15T01:42:28.862Z,1.73
2023-04-15T01:44:55.695Z,1.65
2023-04-15T01:47:22.382Z,1.83
2023-04-15T01:49:49.041Z,1.95
2023-04-15T01:52:15.661Z,2.67
2023-04-15T01:54:42.389Z,1.52
2023-04-15T01:57:09.689Z,1.60
2023-04-15T01:59:36.993Z,1.60
2023-04-15T02:02:05.346Z,1.95
2023-04-15T02:04:32.875Z,1.85
2023-04-15T02:06:59.926Z,1.85
2023-04-15T02:09:26.561Z,1.77
2023-04-15T02:11:54.191Z,1.67
2023-04-15T02:14:23.393Z,1.85
2023-04-15T02:16:50.084Z,2.15
2023-04-15T02:19:16.744Z,1.90
2023-04-15T02:21:43.400Z,1.67
2023-04-15T02:24:10.291Z,2.10
2023-04-15T02:26:36.925Z,1.85
2023-04-15T02:29:03.948Z,1.80
2023-04-15T02:31:30.650Z,1.77
2023-04-15T02:33:57.386Z,1.77
2023-04-15T02:36:24.106Z,1.65
2023-04-15T02:38:50.744Z,1.88
2023-04-15T02:41:17.636Z,1.63
2023-04-15T02:43:44.272Z,1.83
2023-04-15T02:46:14.460Z,2.00
2023-04-15T02:48:41.540Z,2.10
2023-04-15T02:51:16.560Z,1.75
2023-04-15T02:53:43.292Z,1.88
2023-04-15T02:56:10.015Z,1.98
2023-04-15T02:58:36.695Z,1.90
2023-04-15T03:01:03.426Z,2.17
2023-04-15T03:03:30.097Z,1.60
2023-04-15T03:05:56.742Z,2.03
2023-04-15T03:08:23.389Z,2.28
2023-04-15T03:10:52.214Z,1.92
2023-04-15T03:13:19.324Z,2.63
2023-04-15T03:15:48.746Z,2.08
2023-04-15T03:18:15.467Z,2.17
2023-04-15T03:20:44.465Z,1.60
2023-04-15T03:23:11.047Z,1.65
2023-04-15T03:25:37.604Z,1.90
2023-04-15T03:28:04.406Z,2.05
2023-04-15T03:30:31.396Z,1.73
2023-04-15T03:32:58.006Z,1.80
2023-04-15T03:35:24.696Z,2.00
2023-04-15T03:37:51.555Z,1.70
2023-04-15T03:40:18.237Z,1.98
2023-04-15T03:42:44.789Z,2.10
2023-04-15T03:45:11.757Z,3.00
2023-04-15T03:47:38.393Z,2.20
2023-04-15T03:50:05.806Z,1.63
2023-04-15T03:52:32.373Z,1.83
2023-04-15T03:54:59.026Z,1.90
2023-04-15T03:57:25.619Z,2.20
2023-04-15T03:59:52.197Z,1.70
2023-04-15T04:02:18.856Z,1.83
2023-04-15T04:04:45.693Z,1.70
2023-04-15T04:07:16.873Z,1.75
2023-04-15T04:09:44.483Z,1.77
2023-04-15T04:12:11.868Z,1.80
2023-04-15T04:14:38.449Z,1.52
2023-04-15T04:17:05.117Z,1.70
2023-04-15T04:19:31.881Z,2.00
2023-04-15T04:21:58.574Z,1.70
2023-04-15T04:24:32.824Z,1.90
2023-04-15T04:26:59.421Z,2.17
2023-04-15T04:29:26.070Z,1.92
2023-04-15T04:31:52.645Z,2.00
2023-04-15T04:34:19.240Z,1.65
2023-04-15T04:36:45.893Z,1.80
2023-04-15T04:39:12.537Z,1.95
2023-04-15T04:41:39.141Z,1.80
2023-04-15T04:44:05.729Z,2.20
2023-04-15T04:46:32.313Z,1.98
2023-04-15T04:48:58.944Z,2.22
2023-04-15T04:51:26.217Z,3.10
2023-04-15T04:53:54.328Z,3.10
2023-04-15T04:56:21.248Z,2.88
2023-04-15T04:58:47.833Z,3.47
2023-04-15T05:01:14.441Z,3.78
2023-04-15T05:03:41.665Z,3.95
2023-04-15T05:06:08.739Z,3.53
2023-04-15T05:08:35.375Z,3.60
2023-04-15T05:11:03.327Z,2.88
2023-04-15T05:13:30.254Z,2.70
2023-04-15T05:15:56.837Z,2.83
2023-04-15T05:18:23.457Z,2.72
2023-04-15T05:20:50.181Z,2.60
2023-04-15T05:23:17.582Z,2.67
2023-04-15T05:25:44.238Z,2.58
2023-04-15T05:28:11.177Z,3.15
2023-04-15T05:30:38.134Z,3.08
2023-04-15T05:33:04.809Z,3.15
2023-04-15T05:35:31.516Z,2.58
2023-04-15T05:37:58.078Z,2.38
2023-04-15T05:40:24.807Z,2.40
2023-04-15T05:42:51.710Z,2.50
2023-04-15T05:45:18.748Z,2.40
2023-04-15T05:47:45.814Z,2.28
2023-04-15T05:50:12.437Z,2.47
2023-04-15T05:52:39.186Z,2.60
2023-04-15T05:55:07.425Z,1.98
2023-04-15T05:57:34.012Z,3.38
2023-04-15T06:00:00.836Z,3.00
2023-04-15T06:02:27.888Z,2.72
2023-04-15T06:04:54.638Z,3.28
2023-04-15T06:07:21.435Z,2.55
2023-04-15T06:09:48.513Z,2.60
2023-04-15T06:12:15.681Z,2.55
2023-04-15T06:14:42.623Z,2.55
2023-04-15T06:17:09.403Z,3.40
2023-04-15T06:19:38.616Z,9.13
2023-04-15T06:22:07.054Z,31.55
2023-04-15T06:24:36.871Z,15.88
2023-04-15T06:27:03.554Z,10.70
2023-04-15T06:29:30.469Z,5.32
2023-04-15T06:31:57.100Z,3.50
2023-04-15T06:34:23.736Z,3.60
2023-04-15T06:36:50.295Z,3.30
2023-04-15T06:39:16.939Z,3.10
2023-04-15T06:41:43.598Z,3.60
2023-04-15T06:44:10.342Z,3.35
2023-04-15T06:46:36.898Z,3.22
2023-04-15T06:49:03.792Z,3.15
2023-04-15T06:51:38.176Z,3.65
2023-04-15T06:54:06.056Z,3.97
2023-04-15T06:56:33.866Z,3.80
2023-04-15T06:59:00.888Z,5.10
2023-04-15T07:01:27.732Z,8.55
2023-04-15T07:03:54.611Z,7.82
2023-04-15T07:06:21.819Z,7.78
2023-04-15T07:08:48.724Z,17.70
2023-04-15T07:11:15.334Z,10.38
2023-04-15T07:13:41.989Z,7.00
2023-04-15T07:16:08.831Z,6.13
2023-04-15T07:18:35.461Z,5.40
2023-04-15T07:21:02.646Z,4.53
2023-04-15T07:23:29.421Z,6.20
2023-04-15T07:25:56.879Z,4.82
2023-04-15T07:28:23.471Z,13.18
2023-04-15T07:30:50.335Z,5.45
2023-04-15T07:33:16.992Z,4.22
2023-04-15T07:35:43.649Z,3.58
2023-04-15T07:38:10.285Z,16.67
2023-04-15T07:40:36.888Z,4.97
2023-04-15T07:43:03.503Z,3.95
2023-04-15T07:45:30.781Z,3.05
2023-04-15T07:48:02.962Z,3.58
2023-04-15T07:50:29.641Z,3.13
2023-04-15T07:52:57.200Z,2.97
2023-04-15T07:55:24.030Z,2.65
2023-04-15T07:57:51.551Z,2.55
2023-04-15T08:00:18.321Z,2.40
2023-04-15T08:02:46.711Z,2.60
2023-04-15T08:05:14.772Z,2.65
2023-04-15T08:07:41.624Z,2.80
2023-04-15T08:10:08.909Z,2.50
2023-04-15T08:12:35.774Z,2.45
2023-04-15T08:15:05.699Z,2.63
2023-04-15T08:17:32.288Z,2.50
2023-04-15T08:19:59.000Z,2.38
2023-04-15T08:22:25.696Z,2.20
2023-04-15T08:24:52.327Z,2.33
2023-04-15T08:27:19.398Z,1.90
2023-04-15T08:29:46.043Z,2.20
2023-04-15T08:32:12.768Z,2.15
2023-04-15T08:34:39.434Z,2.00
2023-04-15T08:37:06.871Z,1.55
2023-04-15T08:39:33.490Z,1.80
2023-04-15T08:42:07.425Z,1.48
2023-04-15T08:44:36.772Z,1.40
2023-04-15T08:47:05.847Z,1.60
2023-04-15T08:49:32.911Z,1.42
2023-04-15T08:52:00.436Z,1.48
2023-04-15T08:54:34.466Z,1.48
2023-04-15T08:57:02.397Z,1.67
2023-04-15T08:59:32.906Z,1.80
2023-04-15T09:01:59.605Z,1.73
2023-04-15T09:04:28.272Z,1.38
2023-04-15T09:06:54.866Z,1.98
2023-04-15T09:09:22.508Z,1.75
2023-04-15T09:11:50.027Z,1.55
2023-04-15T09:14:17.263Z,1.73
2023-04-15T09:17:05.585Z,1.90
2023-04-15T09:19:34.260Z,1.70
2023-04-15T09:22:02.196Z,2.25
2023-04-15T09:24:39.609Z,3.33
2023-04-15T09:27:06.690Z,2.30
2023-04-15T09:29:33.742Z,2.58
2023-04-15T09:32:16.351Z,2.92
2023-04-15T09:34:43.221Z,2.75
2023-04-15T09:37:11.143Z,3.10
2023-04-15T09:39:52.289Z,2.97
2023-04-15T09:42:26.761Z,6.72
2023-04-15T09:44:55.892Z,6.75
2023-04-15T09:47:32.378Z,4.30
2023-04-15T09:50:00.970Z,4.45
2023-04-15T09:52:28.449Z,6.28
2023-04-15T09:54:58.156Z,5.50
2023-04-15T09:57:25.147Z,7.13
2023-04-15T09:59:52.564Z,14.48
2023-04-15T10:02:22.813Z,5.07
2023-04-15T10:04:50.084Z,6.10
2023-04-15T10:07:20.453Z,8.10
2023-04-15T10:09:49.023Z,7.38
2023-04-15T10:12:18.054Z,7.30
2023-04-15T10:14:45.094Z,4.13
2023-04-15T10:17:12.771Z,2.70
2023-04-15T10:19:40.409Z,9.27
2023-04-15T10:22:07.755Z,3.05
2023-04-15T10:24:34.761Z,5.20
2023-04-15T10:27:04.305Z,2.63
2023-04-15T10:29:31.230Z,2.58
2023-04-15T10:32:01.604Z,2.20
2023-04-15T10:34:29.271Z,2.00
2023-04-15T10:36:58.152Z,2.50
2023-04-15T10:39:33.918Z,1.90
2023-04-15T10:42:10.199Z,1.63
2023-04-15T10:44:38.933Z,1.83
2023-04-15T10:47:21.212Z,1.88
2023-04-15T10:49:51.574Z,2.20
2023-04-15T10:52:24.950Z,1.92
2023-04-15T10:55:10.967Z,2.60
2023-04-15T10:57:42.493Z,2.10
2023-04-15T11:00:09.131Z,2.33
2023-04-15T11:02:56.449Z,2.25
2023-04-15T11:05:41.615Z,2.45
2023-04-15T11:08:10.165Z,2.50
2023-04-15T11:10:39.843Z,2.42
2023-04-15T11:13:17.712Z,2.40
2023-04-15T11:15:46.284Z,2.33
2023-04-15T11:18:20.715Z,2.15
2023-04-15T11:20:50.669Z,2.38
2023-04-15T11:23:34.029Z,2.50
2023-04-15T11:26:03.198Z,2.63
2023-04-15T11:28:32.240Z,2.83
2023-04-15T11:31:06.165Z,2.67
2023-04-15T11:33:32.881Z,2.67
2023-04-15T11:35:59.464Z,2.58
2023-04-15T11:38:26.207Z,2.42
2023-04-15T11:40:52.898Z,2.88
2023-04-15T11:43:23.463Z,2.70
2023-04-15T11:45:55.711Z,2.60
2023-04-15T11:48:35.620Z,2.65
2023-04-15T11:51:07.414Z,2.55
2023-04-15T11:53:38.569Z,2.50
2023-04-15T11:56:06.868Z,3.00
2023-04-15T11:58:39.486Z,2.97
2023-04-15T12:01:07.380Z,2.55
2023-04-15T12:03:38.432Z,2.70
2023-04-15T12:06:24.941Z,2.38
2023-04-15T12:09:07.292Z,3.40
2023-04-15T12:11:57.355Z,2.33
2023-04-15T12:14:33.807Z,3.10
2023-04-15T12:17:05.813Z,4.38
2023-04-15T12:19:41.718Z,4.93
2023-04-15T12:22:14.135Z,5.60
2023-04-15T12:24:49.614Z,3.00
2023-04-15T12:27:17.247Z,2.50
2023-04-15T12:29:44.088Z,4.40
2023-04-15T12:32:13.445Z,4.35
2023-04-15T12:34:56.592Z,4.07
2023-04-15T12:37:23.231Z,3.38
2023-04-15T12:39:50.327Z,4.03
2023-04-15T12:42:17.901Z,3.00
2023-04-15T12:44:45.081Z,3.05
2023-04-15T12:47:12.732Z,4.25
2023-04-15T12:49:39.544Z,2.90
2023-04-15T12:52:06.394Z,3.50
2023-04-15T12:54:33.359Z,4.18
2023-04-15T12:57:00.771Z,2.17
2023-04-15T12:59:28.078Z,2.05
2023-04-15T13:01:54.997Z,1.80
2023-04-15T13:04:22.424Z,2.20
2023-04-15T13:06:49.508Z,1.98
2023-04-15T13:09:16.154Z,2.33
2023-04-15T13:11:43.101Z,2.10
2023-04-15T13:14:12.746Z,2.05
2023-04-15T13:16:39.550Z,1.90
2023-04-15T13:19:06.357Z,2.80
2023-04-15T13:21:35.132Z,3.00
2023-04-15T13:24:03.561Z,3.72
2023-04-15T13:26:31.525Z,2.33
2023-04-15T13:28:58.199Z,3.10
2023-04-15T13:31:24.864Z,3.20
2023-04-15T13:33:51.474Z,4.70
2023-04-15T13:36:18.291Z,2.83
2023-04-15T13:38:50.481Z,1.90
2023-04-15T13:41:17.955Z,2.10
2023-04-15T13:43:44.541Z,2.70
2023-04-15T13:46:11.486Z,1.90
2023-04-15T13:48:38.147Z,2.85
2023-04-15T13:51:04.825Z,2.83
2023-04-15T13:53:38.319Z,2.75
2023-04-15T13:56:10.179Z,2.83
2023-04-15T13:58:38.065Z,3.22
2023-04-15T14:01:08.052Z,3.47
2023-04-15T14:03:36.279Z,2.90
2023-04-15T14:06:03.453Z,2.15
2023-04-15T14:08:30.406Z,2.50
2023-04-15T14:10:57.568Z,2.80
2023-04-15T14:13:24.333Z,3.08
2023-04-15T14:15:50.958Z,3.53
2023-04-15T14:18:17.558Z,3.58
2023-04-15T14:20:44.175Z,2.97
2023-04-15T14:23:10.887Z,2.80
2023-04-15T14:25:39.077Z,2.35
2023-04-15T14:28:05.892Z,2.00
2023-04-15T14:30:32.664Z,6.85
2023-04-15T14:32:59.358Z,4.22
2023-04-15T14:35:26.694Z,2.05
2023-04-15T14:37:54.543Z,2.35
2023-04-15T14:40:21.745Z,3.00
2023-04-15T14:42:48.454Z,6.43
2023-04-15T14:45:15.152Z,3.42
2023-04-15T14:47:41.900Z,3.58
2023-04-15T14:50:09.448Z,3.88
2023-04-15T14:52:38.861Z,4.10
2023-04-15T14:55:10.461Z,6.15
2023-04-15T14:57:42.027Z,2.78
2023-04-15T15:00:12.216Z,5.82
2023-04-15T15:02:40.757Z,4.45
2023-04-15T15:05:09.366Z,2.90
2023-04-15T15:07:38.072Z,1.83
2023-04-15T15:10:05.963Z,1.65
2023-04-15T15:12:33.146Z,1.48
2023-04-15T15:15:01.603Z,1.30
2023-04-15T15:17:29.956Z,1.50
2023-04-15T15:19:57.203Z,1.77
2023-04-15T15:22:24.539Z,1.30
2023-04-15T15:24:51.205Z,1.67
2023-04-15T15:27:17.823Z,1.45
2023-04-15T15:29:44.494Z,1.17
2023-04-15T15:32:11.108Z,1.30
2023-04-15T15:34:37.869Z,1.60
2023-04-15T15:37:04.476Z,2.20
2023-04-15T15:39:31.132Z,1.92
2023-04-15T15:41:57.778Z,1.92
2023-04-15T15:44:24.466Z,1.80
2023-04-15T15:46:51.185Z,1.50
2023-04-15T15:49:18.373Z,1.77
2023-04-15T15:51:45.757Z,1.30
2023-04-15T15:54:12.785Z,1.35
2023-04-15T15:56:39.539Z,1.20
2023-04-15T15:59:06.509Z,1.15
2023-04-15T16:01:33.405Z,1.35
2023-04-15T16:04:00.796Z,1.50
2023-04-15T16:06:28.031Z,1.70
2023-04-15T16:08:54.645Z,1.30
2023-04-15T16:11:21.394Z,1.45
2023-04-15T16:13:47.997Z,1.60
2023-04-15T16:16:14.709Z,2.78
2023-04-15T16:18:41.576Z,4.38
2023-04-15T16:21:08.885Z,4.03
2023-04-15T16:23:36.810Z,5.20
2023-04-15T16:26:03.661Z,5.78
2023-04-15T16:28:30.357Z,7.60
2023-04-15T16:30:57.068Z,4.65
2023-04-15T16:33:23.928Z,3.33
2023-04-15T16:35:51.301Z,5.10
2023-04-15T16:38:18.291Z,3.50
2023-04-15T16:40:45.603Z,4.10
2023-04-15T16:43:12.277Z,8.88
2023-04-15T16:45:39.279Z,3.58
2023-04-15T16:48:06.306Z,2.90
2023-04-15T16:50:32.912Z,3.58
2023-04-15T16:52:59.651Z,2.20
2023-04-15T16:55:26.707Z,3.00
2023-04-15T16:58:02.062Z,3.13
2023-04-15T17:00:31.246Z,2.40
2023-04-15T17:03:00.223Z,1.92
2023-04-15T17:05:30.967Z,2.05
2023-04-15T17:07:57.987Z,5.20
2023-04-15T17:10:24.748Z,5.45
2023-04-15T17:12:52.094Z,3.22
2023-04-15T17:15:19.716Z,1.92
2023-04-15T17:17:46.383Z,2.03
2023-04-15T17:20:13.124Z,2.17
2023-04-15T17:22:46.122Z,2.10
2023-04-15T17:25:14.646Z,1.88
2023-04-15T17:27:41.571Z,2.20
2023-04-15T17:30:08.982Z,1.92
2023-04-15T17:32:39.693Z,1.98
2023-04-15T17:35:07.389Z,1.88
2023-04-15T17:37:34.662Z,2.60
2023-04-15T17:40:01.837Z,2.08
2023-04-15T17:42:28.567Z,1.63
2023-04-15T17:44:55.157Z,1.60
2023-04-15T17:47:21.803Z,2.47
2023-04-15T17:49:53.890Z,1.92
2023-04-15T17:52:20.488Z,1.95
2023-04-15T17:54:47.087Z,2.20
2023-04-15T17:57:13.727Z,2.20
2023-04-15T17:59:43.931Z,4.00
2023-04-15T18:02:11.474Z,2.92
2023-04-15T18:04:38.376Z,2.50
2023-04-15T18:07:05.826Z,3.88
2023-04-15T18:09:32.562Z,6.90
2023-04-15T18:11:59.490Z,4.88
2023-04-15T18:14:34.160Z,2.58
2023-04-15T18:17:03.041Z,5.10
2023-04-15T18:19:31.681Z,3.00
2023-04-15T18:21:59.846Z,6.68
2023-04-15T18:24:26.529Z,4.32
2023-04-15T18:26:53.646Z,4.22
2023-04-15T18:29:20.322Z,2.00
2023-04-15T18:31:54.158Z,2.00
2023-04-15T18:34:20.782Z,1.50
2023-04-15T18:36:47.393Z,1.75
2023-04-15T18:39:16.847Z,1.70
2023-04-15T18:41:43.443Z,1.92
2023-04-15T18:44:11.053Z,1.50
2023-04-15T18:46:38.083Z,1.30
2023-04-15T18:49:04.948Z,1.20
2023-04-15T18:51:32.774Z,1.25
2023-04-15T18:53:59.442Z,1.52
2023-04-15T18:56:26.075Z,1.63
2023-04-15T18:59:09.706Z,1.88
2023-04-15T19:01:39.400Z,1.50
2023-04-15T19:04:06.219Z,1.25
2023-04-15T19:06:33.559Z,1.48
2023-04-15T19:09:00.697Z,1.30
2023-04-15T19:11:27.277Z,1.15
2023-04-15T19:13:54.418Z,1.30
2023-04-15T19:16:21.175Z,1.38
2023-04-15T19:18:47.784Z,1.25
2023-04-15T19:21:15.354Z,1.60
2023-04-15T19:23:45.188Z,2.05
2023-04-15T19:26:12.108Z,2.08
2023-04-15T19:28:38.728Z,1.20
2023-04-15T19:31:05.702Z,1.45
2023-04-15T19:33:32.374Z,1.55
2023-04-15T19:36:04.892Z,1.98
2023-04-15T19:38:37.684Z,2.60
2023-04-15T19:41:04.899Z,2.20
2023-04-15T19:43:32.831Z,2.20
2023-04-15T19:46:08.066Z,2.10
2023-04-15T19:48:34.677Z,2.13
2023-04-15T19:51:01.483Z,2.33
2023-04-15T19:53:28.849Z,2.08
2023-04-15T19:55:55.768Z,1.90
2023-04-15T19:58:29.123Z,2.20
2023-04-15T20:00:56.577Z,1.90
2023-04-15T20:03:23.284Z,1.88
2023-04-15T20:05:50.099Z,2.10
2023-04-15T20:08:16.770Z,2.05
2023-04-15T20:10:43.364Z,2.05
2023-04-15T20:13:09.992Z,2.00
2023-04-15T20:15:36.665Z,2.20
2023-04-15T20:18:03.485Z,1.90
2023-04-15T20:20:30.307Z,2.10
2023-04-15T20:22:59.558Z,1.95
2023-04-15T20:25:26.231Z,2.00
2023-04-15T20:27:52.824Z,1.80
2023-04-15T20:30:19.574Z,1.73
2023-04-15T20:32:46.315Z,2.05
2023-04-15T20:35:12.995Z,1.83
2023-04-15T20:37:40.360Z,1.80
2023-04-15T20:40:07.902Z,1.75
2023-04-15T20:42:34.548Z,1.95
2023-04-15T20:45:01.712Z,1.90
2023-04-15T20:47:28.488Z,1.88
2023-04-15T20:49:58.205Z,2.00
2023-04-15T20:52:24.817Z,1.90
2023-04-15T20:54:51.512Z,1.52
2023-04-15T20:57:18.439Z,1.77
2023-04-15T20:59:45.031Z,2.20
2023-04-15T21:02:11.970Z,1.90
2023-04-15T21:04:38.920Z,2.05
2023-04-15T21:07:05.568Z,1.77
2023-04-15T21:09:32.244Z,2.00
2023-04-15T21:12:01.645Z,1.90
2023-04-15T21:14:30.838Z,1.85
2023-04-15T21:16:58.219Z,1.90
2023-04-15T21:19:24.880Z,1.85
2023-04-15T21:21:52.058Z,2.10
2023-04-15T21:24:18.593Z,2.20
2023-04-15T21:26:45.253Z,1.88
2023-04-15T21:29:12.182Z,1.80
2023-04-15T21:31:39.702Z,1.98
2023-04-15T21:34:06.367Z,1.80
2023-04-15T21:36:33.701Z,1.83
2023-04-15T21:39:00.713Z,2.10
2023-04-15T21:41:27.645Z,1.90
2023-04-15T21:43:54.264Z,1.88
2023-04-15T21:46:25.272Z,1.98
2023-04-15T21:48:55.738Z,2.30
2023-04-15T21:51:22.637Z,2.20
2023-04-15T21:53:49.290Z,2.13
2023-04-15T21:56:15.991Z,2.75
2023-04-15T21:58:42.826Z,2.42
2023-04-15T22:01:09.483Z,2.35
2023-04-15T22:03:36.275Z,2.88
2023-04-15T22:06:03.913Z,2.53
2023-04-15T22:08:41.279Z,2.50
2023-04-15T22:11:26.289Z,2.95
2023-04-15T22:13:59.483Z,2.90
2023-04-15T22:16:27.033Z,2.80
2023-04-15T22:18:54.708Z,2.70
2023-04-15T22:21:22.038Z,3.20
2023-04-15T22:23:49.440Z,3.13
2023-04-15T22:26:16.134Z,3.45
2023-04-15T22:28:42.748Z,3.40
2023-04-15T22:31:09.931Z,3.50
2023-04-15T22:33:36.672Z,3.40
2023-04-15T22:36:03.541Z,4.15
2023-04-15T22:38:30.333Z,3.40
2023-04-15T22:40:56.908Z,3.97
2023-04-15T22:43:23.674Z,4.43
2023-04-15T22:45:51.483Z,4.20
2023-04-15T22:48:18.901Z,4.82
2023-04-15T22:50:45.683Z,4.60
2023-04-15T22:53:12.360Z,4.80
2023-04-15T22:55:38.926Z,4.90
2023-04-15T22:58:05.780Z,5.15
2023-04-15T23:00:32.398Z,5.22
2023-04-15T23:02:59.106Z,5.45
2023-04-15T23:05:25.906Z,5.07
2023-04-15T23:07:52.474Z,5.18
2023-04-15T23:10:19.088Z,6.22
2023-04-15T23:12:46.333Z,5.80
2023-04-15T23:15:16.994Z,5.50
2023-04-15T23:17:43.720Z,6.00
2023-04-15T23:20:11.419Z,6.68
2023-04-15T23:22:38.776Z,6.53
2023-04-15T23:25:06.136Z,6.15
2023-04-15T23:27:32.833Z,6.18
2023-04-15T23:29:59.395Z,6.43
2023-04-15T23:32:27.193Z,6.10
2023-04-15T23:34:53.877Z,6.07
2023-04-15T23:37:20.545Z,6.70
2023-04-15T23:39:47.154Z,6.80
2023-04-15T23:42:13.756Z,7.03
2023-04-15T23:44:40.323Z,6.40
2023-04-15T23:47:07.155Z,6.50
2023-04-15T23:49:33.842Z,7.15
2023-04-15T23:52:00.447Z,6.40
2023-04-15T23:54:27.045Z,6.82
2023-04-15T23:56:53.653Z,6.03
2023-04-15T23:59:20.304Z,5.82
